Time;durP1;ratioP1;P1;durP2;ratioP2;P2;SDS_P1;SDS_P2;PMS_P1;PMS_P2;Temp;Humidity;BMP_temperature;BMP_pressure;BME280_temperature;BME280_humidity;BME280_pressure;Samples;Min_cycle;Max_cycle;Signal;HPM_P1;HPM_P2
2023/08/16 00:00:46;;;;;;;32.03;6.03;;;28.80;49.80;;;;;;5063101;28;20211;-71
2023/08/16 00:03:14;;;;;;;25.07;5.27;;;28.80;49.80;;;;;;5060979;28;20234;-72
2023/08/16 00:05:43;;;;;;;25.50;5.40;;;28.80;49.80;;;;;;5058275;28;20200;-71
2023/08/16 00:08:10;;;;;;;24.77;5.60;;;28.80;49.80;;;;;;5067810;28;20203;-70
2023/08/16 00:10:37;;;;;;;25.17;5.50;;;28.80;49.80;;;;;;5067370;28;20554;-71
2023/08/16 00:13:05;;;;;;;25.30;5.50;;;28.80;49.80;;;;;;5067855;28;20214;-72
2023/08/16 00:15:32;;;;;;;29.53;5.77;;;28.80;49.80;;;;;;5067126;28;20257;-71
2023/08/16 00:17:59;;;;;;;24.40;5.63;;;28.80;49.80;;;;;;5056779;28;20207;-71
2023/08/16 00:20:27;;;;;;;27.13;5.70;;;28.70;49.80;;;;;;5061647;28;20676;-71
2023/08/16 00:22:54;;;;;;;27.77;5.70;;;28.80;49.90;;;;;;5063539;28;20219;-71
2023/08/16 00:25:21;;;;;;;32.07;6.00;;;28.80;49.90;;;;;;5053034;28;20203;-72
2023/08/16 00:27:49;;;;;;;19.00;5.07;;;28.80;49.90;;;;;;5067466;28;20206;-72
2023/08/16 00:30:17;;;;;;;69.17;9.27;;;28.80;49.90;;;;;;5067412;28;21074;-72
2023/08/16 00:32:44;;;;;;;57.07;8.10;;;28.70;49.90;;;;;;5067570;28;20282;-70
2023/08/16 00:35:11;;;;;;;22.87;5.17;;;28.70;49.90;;;;;;5055516;28;20328;-70
2023/08/16 00:37:38;;;;;;;23.67;5.27;;;28.70;49.90;;;;;;5065734;28;20195;-71
2023/08/16 00:40:08;;;;;;;81.47;10.13;;;28.70;49.90;;;;;;5056633;28;20660;-72
2023/08/16 00:42:35;;;;;;;21.73;5.23;;;28.70;49.90;;;;;;5063489;28;20200;-75
2023/08/16 00:45:03;;;;;;;31.63;5.73;;;28.70;49.90;;;;;;5052532;28;20282;-72
2023/08/16 00:47:31;;;;;;;38.10;6.67;;;28.70;49.90;;;;;;5050606;28;20184;-76
2023/08/16 00:49:58;;;;;;;29.17;6.00;;;28.70;49.90;;;;;;5068716;28;20770;-74
2023/08/16 00:52:25;;;;;;;31.17;6.03;;;28.70;49.90;;;;;;5069491;28;20282;-75
2023/08/16 00:54:52;;;;;;;21.23;5.03;;;28.70;49.90;;;;;;5069355;28;20222;-71
2023/08/16 00:57:20;;;;;;;25.50;5.50;;;28.70;49.90;;;;;;5054784;28;20287;-71
2023/08/16 00:59:47;;;;;;;27.00;5.27;;;28.70;49.90;;;;;;5051036;28;20219;-72
2023/08/16 01:02:14;;;;;;;49.93;7.70;;;28.70;50.00;;;;;;5049582;28;20212;-71
2023/08/16 01:04:43;;;;;;;26.80;5.67;;;28.70;50.00;;;;;;5049675;28;20227;-71
2023/08/16 01:07:10;;;;;;;31.20;6.27;;;28.70;50.00;;;;;;5049747;28;20202;-71
2023/08/16 01:09:37;;;;;;;31.13;6.03;;;28.70;50.00;;;;;;5061451;28;20200;-72
2023/08/16 01:12:11;;;;;;;24.10;5.47;;;28.60;50.00;;;;;;5068475;28;20284;-71
2023/08/16 01:14:46;;;;;;;23.07;5.23;;;28.60;50.00;;;;;;5060080;28;20211;-72
2023/08/16 01:17:15;;;;;;;37.07;6.47;;;28.60;50.00;;;;;;5069915;28;20202;-72
2023/08/16 01:19:45;;;;;;;24.03;5.17;;;28.60;50.00;;;;;;5069823;28;20213;-71
2023/08/16 01:22:21;;;;;;;33.80;6.13;;;28.60;50.00;;;;;;5069609;28;20200;-72
2023/08/16 01:25:08;;;;;;;25.90;5.30;;;28.60;50.10;;;;;;5061959;28;20242;-72
2023/08/16 01:27:36;;;;;;;33.83;6.03;;;28.60;50.10;;;;;;5050258;28;20204;-72
2023/08/16 01:30:05;;;;;;;16.60;4.70;;;28.60;50.00;;;;;;5064476;28;20294;-72
2023/08/16 01:32:33;;;;;;;34.33;6.43;;;28.60;50.10;;;;;;5067414;28;20272;-71
2023/08/16 01:35:00;;;;;;;17.97;4.60;;;28.60;50.10;;;;;;5049829;28;20239;-71
2023/08/16 01:37:27;;;;;;;35.70;6.27;;;28.50;50.00;;;;;;5054659;28;20709;-72
2023/08/16 01:40:03;;;;;;;60.73;8.63;;;28.50;50.00;;;;;;5066701;28;20298;-72
2023/08/16 01:42:33;;;;;;;28.10;5.67;;;28.50;50.00;;;;;;5066948;28;20199;-72
2023/08/16 01:45:02;;;;;;;50.33;7.70;;;28.50;50.00;;;;;;5051402;28;20259;-73
2023/08/16 01:47:30;;;;;;;27.67;5.73;;;28.50;50.10;;;;;;5052361;28;20318;-72
2023/08/16 01:49:58;;;;;;;24.47;5.23;;;28.50;50.10;;;;;;5068257;28;20206;-73
2023/08/16 01:52:27;;;;;;;24.03;5.40;;;28.50;50.10;;;;;;5068609;28;20196;-71
2023/08/16 01:54:54;;;;;;;60.57;8.60;;;28.50;50.10;;;;;;5061241;28;20210;-72
2023/08/16 01:57:20;;;;;;;35.50;6.87;;;28.50;50.10;;;;;;5050944;28;20561;-72
2023/08/16 01:59:47;;;;;;;49.00;7.60;;;28.50;50.10;;;;;;5066216;28;20715;-73
2023/08/16 02:02:16;;;;;;;27.63;5.37;;;28.50;50.70;;;;;;5063981;28;20231;-72
2023/08/16 02:04:43;;;;;;;26.27;5.80;;;28.50;50.20;;;;;;5067709;28;20231;-73
2023/08/16 02:07:10;;;;;;;54.13;8.13;;;28.50;50.20;;;;;;5062889;28;20703;-69
2023/08/16 02:09:37;;;;;;;32.77;5.83;;;28.50;50.20;;;;;;5060195;28;20732;-74
2023/08/16 02:12:04;;;;;;;40.73;7.10;;;28.40;50.10;;;;;;5064088;28;20674;-75
2023/08/16 02:14:31;;;;;;;32.10;6.13;;;28.40;50.10;;;;;;5052477;28;20282;-74
2023/08/16 02:16:57;;;;;;;47.43;7.50;;;28.40;50.20;;;;;;5063217;28;20199;-75
2023/08/16 02:19:26;;;;;;;23.17;5.17;;;28.40;50.20;;;;;;5065172;28;20283;-75
2023/08/16 02:21:53;;;;;;;32.83;6.50;;;28.40;50.20;;;;;;5057537;28;20688;-75
2023/08/16 02:24:20;;;;;;;30.33;6.03;;;28.40;50.20;;;;;;5066846;28;20235;-72
2023/08/16 02:26:47;;;;;;;39.57;6.57;;;28.40;50.20;;;;;;5063952;28;20282;-72
2023/08/16 02:29:14;;;;;;;22.73;5.33;;;28.40;50.20;;;;;;5062905;28;20211;-72
2023/08/16 02:31:41;;;;;;;38.40;6.73;;;28.40;50.20;;;;;;5056264;28;20235;-72
2023/08/16 02:34:08;;;;;;;29.70;5.53;;;28.40;50.30;;;;;;5066301;28;20318;-73
2023/08/16 02:36:36;;;;;;;28.40;5.53;;;28.40;50.20;;;;;;5065641;28;20206;-73
2023/08/16 02:39:05;;;;;;;29.20;5.63;;;28.40;50.20;;;;;;5064576;28;21087;-72
2023/08/16 02:41:32;;;;;;;29.53;5.87;;;28.40;50.20;;;;;;5064260;28;20192;-72
2023/08/16 02:43:59;;;;;;;24.60;5.67;;;28.30;50.10;;;;;;5056897;28;20231;-72
2023/08/16 02:46:26;;;;;;;46.60;7.77;;;28.30;50.80;;;;;;5059216;28;20223;-73
2023/08/16 02:48:53;;;;;;;61.90;8.43;;;28.30;50.20;;;;;;5049078;28;20311;-73
2023/08/16 02:51:20;;;;;;;22.03;5.30;;;28.30;50.20;;;;;;5064748;28;20324;-73
2023/08/16 02:53:49;;;;;;;46.27;7.33;;;28.30;50.90;;;;;;5065739;28;20249;-72
2023/08/16 02:56:15;;;;;;;43.90;7.00;;;28.30;50.20;;;;;;5063229;28;20654;-72
2023/08/16 02:58:42;;;;;;;37.57;6.47;;;28.30;50.30;;;;;;5059502;28;20204;-73
2023/08/16 03:01:09;;;;;;;18.10;4.90;;;28.30;50.30;;;;;;5065395;28;20225;-72
2023/08/16 03:03:36;;;;;;;25.57;5.57;;;28.30;50.30;;;;;;5047915;28;20221;-72
2023/08/16 03:06:04;;;;;;;24.33;5.27;;;28.30;50.30;;;;;;5064645;28;21005;-72
2023/08/16 03:08:31;;;;;;;28.40;5.37;;;28.30;50.30;;;;;;5067864;28;20204;-72
2023/08/16 03:10:59;;;;;;;22.70;4.63;;;28.30;50.30;;;;;;5067270;28;20265;-71
2023/08/16 03:13:26;;;;;;;26.47;5.33;;;28.30;50.30;;;;;;5063440;28;20210;-72
2023/08/16 03:15:53;;;;;;;29.13;5.57;;;28.30;50.30;;;;;;5059020;28;20198;-73
2023/08/16 03:18:20;;;;;;;59.27;8.30;;;28.20;50.30;;;;;;5065559;28;20314;-73
2023/08/16 03:20:47;;;;;;;25.87;5.37;;;28.20;50.30;;;;;;5065771;28;20290;-72
2023/08/16 03:23:14;;;;;;;20.67;5.00;;;28.20;50.30;;;;;;5064908;28;20303;-72
2023/08/16 03:25:43;;;;;;;41.73;6.77;;;28.20;50.30;;;;;;5070419;28;20234;-72
2023/08/16 03:28:11;;;;;;;27.40;5.50;;;28.20;50.30;;;;;;5072127;28;20199;-73
2023/08/16 03:30:40;;;;;;;22.03;5.00;;;28.20;50.40;;;;;;5068671;28;20191;-73
2023/08/16 03:33:07;;;;;;;18.73;4.80;;;28.20;50.40;;;;;;5056962;28;20200;-73
2023/08/16 03:35:34;;;;;;;74.37;9.50;;;28.20;50.40;;;;;;5051497;28;20204;-73
2023/08/16 03:38:00;;;;;;;27.67;5.33;;;28.20;50.40;;;;;;5068176;28;20235;-72
2023/08/16 03:40:27;;;;;;;27.97;5.63;;;28.20;50.40;;;;;;5070394;28;20291;-75
2023/08/16 03:42:54;;;;;;;15.93;4.73;;;28.10;50.30;;;;;;5068236;28;20203;-76
2023/08/16 03:45:25;;;;;;;27.90;5.63;;;28.10;50.30;;;;;;5056417;28;20231;-75
2023/08/16 03:47:53;;;;;;;49.40;7.33;;;28.10;50.30;;;;;;5061404;28;20779;-76
2023/08/16 03:50:20;;;;;;;23.27;5.10;;;28.10;50.30;;;;;;5069712;28;20569;-74
2023/08/16 03:52:47;;;;;;;63.23;8.67;;;28.10;50.30;;;;;;5054034;28;20649;-75
2023/08/16 03:55:14;;;;;;;20.90;4.80;;;28.10;50.30;;;;;;5060440;28;20634;-73
2023/08/16 03:57:41;;;;;;;23.43;5.27;;;28.10;50.30;;;;;;5068405;28;20261;-72
2023/08/16 04:00:11;;;;;;;28.67;5.67;;;28.10;50.30;;;;;;5070225;28;20249;-73
2023/08/16 04:02:39;;;;;;;23.83;5.20;;;28.10;50.40;;;;;;5067672;28;20581;-72
2023/08/16 04:05:11;;;;;;;21.77;5.00;;;28.10;50.90;;;;;;5066135;28;20235;-71
2023/08/16 04:07:38;;;;;;;26.30;5.13;;;28.10;50.30;;;;;;5062781;28;20228;-72
2023/08/16 04:10:06;;;;;;;27.83;5.43;;;28.00;50.30;;;;;;5069760;28;20199;-72
2023/08/16 04:12:33;;;;;;;24.43;5.33;;;28.00;50.30;;;;;;5062122;28;20231;-71
2023/08/16 04:15:00;;;;;;;29.47;5.53;;;28.00;50.30;;;;;;5060962;28;20203;-72
2023/08/16 04:17:27;;;;;;;16.67;4.60;;;28.00;50.30;;;;;;5068467;28;20196;-72
2023/08/16 04:19:55;;;;;;;24.60;5.40;;;28.00;50.30;;;;;;5069220;28;20195;-70
2023/08/16 04:22:22;;;;;;;20.43;4.77;;;28.00;50.30;;;;;;5065713;28;20270;-72
2023/08/16 04:24:49;;;;;;;35.03;6.20;;;28.00;50.40;;;;;;5061272;28;20663;-71
2023/08/16 04:27:16;;;;;;;24.33;5.27;;;28.00;50.30;;;;;;5070279;28;20242;-71
2023/08/16 04:29:43;;;;;;;28.13;5.83;;;28.00;50.40;;;;;;5065349;28;20290;-71
2023/08/16 04:32:10;;;;;;;48.13;7.37;;;28.00;50.40;;;;;;5064440;28;20207;-71
2023/08/16 04:34:37;;;;;;;24.67;5.27;;;28.00;50.40;;;;;;5055203;28;20265;-72
2023/08/16 04:37:05;;;;;;;22.53;5.13;;;28.00;50.40;;;;;;5068700;28;20246;-71
2023/08/16 04:39:32;;;;;;;23.67;5.17;;;28.00;50.40;;;;;;5059231;28;20633;-71
2023/08/16 04:41:59;;;;;;;24.90;5.20;;;28.00;50.40;;;;;;5055470;28;20208;-72
2023/08/16 04:44:26;;;;;;;19.10;4.87;;;28.00;50.40;;;;;;5066432;28;20250;-73
2023/08/16 04:46:53;;;;;;;23.47;5.33;;;28.00;50.40;;;;;;5069500;28;20306;-71
2023/08/16 04:49:20;;;;;;;26.77;5.47;;;28.00;50.40;;;;;;5058868;28;20208;-70
2023/08/16 04:51:47;;;;;;;26.37;5.23;;;27.90;50.40;;;;;;5051066;28;20200;-71
2023/08/16 04:54:15;;;;;;;27.40;5.67;;;27.90;50.40;;;;;;5068531;28;20243;-71
2023/08/16 04:56:42;;;;;;;47.47;7.37;;;27.90;50.40;;;;;;5068751;28;20294;-70
2023/08/16 04:59:09;;;;;;;28.63;5.33;;;27.90;50.40;;;;;;5057196;28;20290;-75
2023/08/16 05:01:37;;;;;;;44.20;7.17;;;27.90;50.50;;;;;;5063163;28;20212;-74
2023/08/16 05:04:06;;;;;;;32.87;6.07;;;27.90;50.50;;;;;;5057344;28;20210;-75
2023/08/16 05:06:33;;;;;;;21.90;5.37;;;27.90;50.50;;;;;;5053347;28;20226;-76
2023/08/16 05:09:00;;;;;;;28.60;6.00;;;27.90;50.50;;;;;;5051483;28;20323;-70
2023/08/16 05:11:29;;;;;;;23.60;5.80;;;27.90;50.50;;;;;;5069712;28;20294;-72
2023/08/16 05:13:56;;;;;;;29.90;5.73;;;27.90;50.50;;;;;;5068050;28;20287;-70
2023/08/16 05:16:23;;;;;;;26.20;5.77;;;27.90;50.50;;;;;;5056222;28;20701;-77
2023/08/16 05:18:50;;;;;;;33.50;5.93;;;27.80;50.40;;;;;;5058359;28;20202;-72
2023/08/16 05:21:17;;;;;;;25.57;5.30;;;27.90;50.50;;;;;;5062448;28;20200;-76
2023/08/16 05:23:44;;;;;;;23.83;5.33;;;27.90;50.50;;;;;;5065848;28;20743;-72
2023/08/16 05:26:11;;;;;;;23.47;5.40;;;27.90;50.50;;;;;;5067007;28;20237;-72
2023/08/16 05:28:39;;;;;;;48.43;7.50;;;27.80;50.50;;;;;;5051057;28;20210;-71
2023/08/16 05:31:08;;;;;;;24.67;5.40;;;27.80;50.50;;;;;;5055068;28;20203;-71
2023/08/16 05:33:35;;;;;;;25.90;5.30;;;27.80;50.50;;;;;;5061481;28;20200;-74
2023/08/16 05:36:02;;;;;;;28.27;5.63;;;27.80;50.50;;;;;;5056187;28;20734;-70
2023/08/16 05:38:29;;;;;;;69.20;9.47;;;27.80;50.60;;;;;;5062357;28;20550;-70
2023/08/16 05:40:56;;;;;;;21.73;4.97;;;27.80;50.60;;;;;;5063038;28;20206;-71
2023/08/16 05:43:23;;;;;;;41.07;7.37;;;27.80;50.60;;;;;;5061679;28;20291;-70
2023/08/16 05:45:51;;;;;;;29.77;6.10;;;27.80;50.60;;;;;;5064615;28;20306;-70
2023/08/16 05:48:18;;;;;;;20.60;4.93;;;27.80;50.70;;;;;;5067950;28;20222;-70
2023/08/16 05:50:45;;;;;;;41.13;7.10;;;27.80;50.70;;;;;;5053401;28;20311;-70
2023/08/16 05:53:12;;;;;;;27.20;6.00;;;27.80;50.80;;;;;;5067788;28;20198;-71
2023/08/16 05:55:39;;;;;;;32.10;6.37;;;27.80;50.80;;;;;;5066649;28;20198;-71
2023/08/16 05:58:06;;;;;;;24.83;5.53;;;27.80;50.90;;;;;;5052966;28;20297;-73
2023/08/16 06:00:34;;;;;;;39.40;7.13;;;27.80;50.90;;;;;;5061917;28;20648;-70
2023/08/16 06:03:02;;;;;;;27.30;6.03;;;27.80;50.90;;;;;;5051910;28;20656;-70
2023/08/16 06:05:29;;;;;;;28.33;5.90;;;27.80;51.00;;;;;;5068183;28;20641;-69
2023/08/16 06:07:57;;;;;;;30.90;6.00;;;27.80;51.00;;;;;;5068165;28;20203;-72
2023/08/16 06:10:25;;;;;;;26.03;5.47;;;27.80;51.10;;;;;;5067261;28;20200;-73
2023/08/16 06:12:52;;;;;;;27.10;6.23;;;27.80;51.10;;;;;;5052985;28;20208;-73
2023/08/16 06:15:19;;;;;;;26.13;5.70;;;27.80;51.00;;;;;;5061986;28;20289;-71
2023/08/16 06:17:46;;;;;;;47.50;10.43;;;27.80;51.00;;;;;;5064449;28;20253;-73
2023/08/16 06:20:15;;;;;;;58.47;11.60;;;27.80;50.90;;;;;;5060644;28;20214;-80
2023/08/16 06:22:41;;;;;;;39.30;8.50;;;27.80;51.00;;;;;;5062147;28;20653;-74
2023/08/16 06:25:09;;;;;;;34.77;7.97;;;27.80;50.90;;;;;;5060887;28;20323;-75
2023/08/16 06:27:36;;;;;;;27.10;7.73;;;27.80;50.90;;;;;;5066159;28;20282;-70
2023/08/16 06:30:04;;;;;;;34.57;7.77;;;27.80;50.90;;;;;;5060721;28;20298;-73
2023/08/16 06:32:30;;;;;;;24.93;6.73;;;27.80;50.80;;;;;;5058127;28;20290;-72
2023/08/16 06:34:57;;;;;;;32.17;7.20;;;27.80;50.80;;;;;;5057645;28;20290;-71
2023/08/16 06:37:26;;;;;;;24.57;6.87;;;27.80;50.90;;;;;;5067318;28;20282;-72
2023/08/16 06:39:53;;;;;;;36.27;7.07;;;27.80;50.80;;;;;;5068486;28;20199;-76
2023/08/16 06:42:20;;;;;;;30.70;6.90;;;27.80;50.80;;;;;;5068049;28;20618;-70
2023/08/16 06:44:47;;;;;;;26.17;6.43;;;27.80;50.80;;;;;;5068071;28;20243;-76
2023/08/16 06:47:14;;;;;;;24.17;6.13;;;27.70;50.80;;;;;;5060709;28;20223;-75
2023/08/16 06:49:41;;;;;;;35.50;7.90;;;27.70;50.80;;;;;;5067157;28;20238;-77
2023/08/16 06:52:08;;;;;;;28.10;6.63;;;27.70;50.90;;;;;;5067040;28;20656;-75
2023/08/16 06:54:36;;;;;;;27.60;6.93;;;27.70;50.90;;;;;;5067486;28;20293;-74
2023/08/16 06:57:03;;;;;;;23.30;6.60;;;27.70;50.90;;;;;;5063370;28;20212;-74
2023/08/16 06:59:31;;;;;;;33.80;7.23;;;27.70;50.90;;;;;;5056847;28;20628;-73
2023/08/16 07:01:58;;;;;;;28.60;6.50;;;27.70;50.90;;;;;;5050995;28;20751;-74
2023/08/16 07:04:26;;;;;;;39.60;7.30;;;27.70;50.90;;;;;;5047074;28;20204;-74
2023/08/16 07:06:53;;;;;;;32.30;7.13;;;27.70;51.00;;;;;;5048125;28;20252;-74
2023/08/16 07:09:21;;;;;;;31.83;7.23;;;27.70;51.00;;;;;;5060716;28;20203;-74
2023/08/16 07:11:50;;;;;;;27.17;6.33;;;27.60;50.90;;;;;;5067385;28;21012;-74
2023/08/16 07:14:17;;;;;;;28.30;6.23;;;27.70;51.00;;;;;;5067990;28;20196;-75
2023/08/16 07:16:44;;;;;;;23.20;6.53;;;27.70;51.00;;;;;;5067769;28;20202;-74
2023/08/16 07:19:11;;;;;;;26.97;6.30;;;27.70;51.10;;;;;;5068197;28;20275;-74
2023/08/16 07:21:38;;;;;;;28.03;6.10;;;27.70;51.10;;;;;;5068072;28;20235;-74
2023/08/16 07:24:06;;;;;;;25.23;5.70;;;27.70;51.10;;;;;;5061577;28;20200;-75
2023/08/16 07:26:33;;;;;;;41.37;7.10;;;27.70;51.10;;;;;;5048527;28;20273;-77
2023/08/16 07:29:02;;;;;;;39.00;7.13;;;27.70;51.10;;;;;;5064803;28;20204;-74
2023/08/16 07:31:29;;;;;;;36.10;7.07;;;27.70;51.20;;;;;;5066114;28;20617;-74
2023/08/16 07:33:56;;;;;;;24.97;5.77;;;27.70;51.30;;;;;;5067450;28;20235;-77
2023/08/16 07:36:23;;;;;;;32.60;6.70;;;27.70;51.30;;;;;;5067112;28;20202;-77
2023/08/16 07:38:50;;;;;;;37.80;7.50;;;27.70;51.20;;;;;;5067016;28;20302;-77
2023/08/16 07:41:17;;;;;;;25.30;5.80;;;27.70;51.20;;;;;;5064138;28;20290;-77
2023/08/16 07:43:44;;;;;;;31.20;6.47;;;27.70;51.30;;;;;;5067619;28;20282;-76
2023/08/16 07:46:12;;;;;;;26.47;6.17;;;27.70;51.30;;;;;;5066301;28;20261;-74
2023/08/16 07:48:39;;;;;;;24.10;6.10;;;27.70;51.30;;;;;;5067599;28;20662;-74
2023/08/16 07:51:06;;;;;;;25.00;5.77;;;27.80;52.00;;;;;;5065519;28;20212;-74
2023/08/16 07:53:33;;;;;;;35.23;6.70;;;27.70;51.30;;;;;;5067649;28;20655;-74
2023/08/16 07:56:00;;;;;;;35.33;6.60;;;27.80;51.40;;;;;;5056611;28;20204;-73
2023/08/16 07:58:27;;;;;;;29.20;5.70;;;27.80;51.40;;;;;;5058368;28;20320;-73
2023/08/16 08:00:54;;;;;;;42.73;7.40;;;27.80;51.40;;;;;;5065698;28;20235;-73
2023/08/16 08:03:25;;;;;;;32.70;6.47;;;27.90;51.50;;;;;;5067622;28;20585;-74
2023/08/16 08:05:53;;;;;;;23.57;5.53;;;27.90;51.50;;;;;;5066993;28;20231;-74
2023/08/16 08:08:20;;;;;;;40.83;6.93;;;27.90;51.50;;;;;;5066810;28;20210;-73
2023/08/16 08:10:47;;;;;;;28.80;6.33;;;27.90;51.50;;;;;;5070637;28;20282;-74
2023/08/16 08:13:14;;;;;;;27.97;6.60;;;27.90;51.50;;;;;;5067162;28;20234;-74
2023/08/16 08:15:41;;;;;;;29.90;6.43;;;28.00;51.60;;;;;;5070234;28;20239;-73
2023/08/16 08:18:08;;;;;;;42.83;7.50;;;28.00;51.60;;;;;;5068044;28;20203;-74
2023/08/16 08:20:37;;;;;;;29.93;6.07;;;28.00;51.60;;;;;;5070010;28;20199;-74
2023/08/16 08:23:05;;;;;;;19.47;5.30;;;28.00;51.60;;;;;;5069468;28;20213;-75
2023/08/16 08:25:31;;;;;;;41.30;6.97;;;28.00;51.60;;;;;;5069024;28;20268;-74
2023/08/16 08:27:59;;;;;;;29.47;6.37;;;28.00;51.60;;;;;;5069672;28;20290;-76
2023/08/16 08:30:26;;;;;;;37.17;6.97;;;28.00;51.60;;;;;;5052963;28;20207;-77
2023/08/16 08:32:55;;;;;;;35.93;6.70;;;28.10;51.70;;;;;;5068880;28;20257;-74
2023/08/16 08:35:21;;;;;;;30.40;6.57;;;28.20;51.80;;;;;;5069916;28;20231;-75
2023/08/16 08:37:50;;;;;;;21.30;5.87;;;28.20;51.80;;;;;;5069085;28;20227;-75
2023/08/16 08:40:18;;;;;;;24.43;5.83;;;28.20;51.80;;;;;;5070055;28;20199;-75
2023/08/16 08:42:47;;;;;;;29.00;5.63;;;28.20;51.80;;;;;;5069420;28;20207;-73
2023/08/16 08:45:16;;;;;;;27.27;5.90;;;28.20;51.80;;;;;;5068147;28;20196;-75
2023/08/16 08:47:44;;;;;;;24.53;5.63;;;28.30;51.90;;;;;;5062257;28;21022;-74
2023/08/16 08:50:11;;;;;;;31.87;6.40;;;28.30;51.90;;;;;;5053325;28;20204;-75
2023/08/16 08:52:38;;;;;;;26.10;5.83;;;28.30;51.90;;;;;;5054519;28;20234;-75
2023/08/16 08:55:07;;;;;;;24.63;5.83;;;28.40;51.90;;;;;;5050017;28;20214;-74
2023/08/16 08:57:35;;;;;;;23.03;5.13;;;28.40;51.90;;;;;;5049616;28;20236;-74
2023/08/16 09:00:04;;;;;;;28.60;6.00;;;28.40;51.90;;;;;;5050170;28;20204;-74
2023/08/16 09:02:33;;;;;;;29.87;6.07;;;28.40;51.90;;;;;;5049772;28;20204;-74
2023/08/16 09:05:05;;;;;;;28.90;5.83;;;28.40;52.60;;;;;;5066307;28;20200;-75
2023/08/16 09:07:34;;;;;;;27.57;5.97;;;28.50;52.00;;;;;;5069391;28;20238;-74
2023/08/16 09:10:01;;;;;;;25.67;5.83;;;28.50;52.00;;;;;;5070032;28;20664;-74
2023/08/16 09:12:29;;;;;;;61.67;9.00;;;28.60;52.00;;;;;;5067501;28;20200;-77
2023/08/16 09:14:56;;;;;;;34.40;6.47;;;28.60;52.00;;;;;;5064320;28;20282;-73
2023/08/16 09:17:23;;;;;;;41.40;7.00;;;28.60;52.00;;;;;;5049246;28;20739;-73
2023/08/16 09:19:50;;;;;;;25.87;5.63;;;28.70;52.00;;;;;;5068728;28;20196;-74
2023/08/16 09:22:18;;;;;;;33.03;6.57;;;28.70;52.00;;;;;;5069514;28;20283;-74
2023/08/16 09:24:45;;;;;;;20.53;5.17;;;28.70;52.00;;;;;;5052932;28;20295;-74
2023/08/16 09:27:11;;;;;;;25.83;5.83;;;28.80;52.00;;;;;;5064467;28;20694;-74
2023/08/16 09:29:40;;;;;;;23.60;5.67;;;28.80;52.00;;;;;;5065739;28;20302;-74
2023/08/16 09:32:08;;;;;;;19.87;5.23;;;28.80;52.00;;;;;;5068675;28;20762;-74
2023/08/16 09:34:36;;;;;;;27.80;5.97;;;28.80;52.00;;;;;;5068371;28;20655;-74
2023/08/16 09:37:03;;;;;;;25.90;5.60;;;28.90;52.00;;;;;;5068743;28;20735;-74
2023/08/16 09:39:30;;;;;;;25.03;5.67;;;28.90;52.00;;;;;;5068544;28;20226;-74
2023/08/16 09:41:58;;;;;;;26.57;5.70;;;29.00;52.10;;;;;;5069611;28;20253;-74
2023/08/16 09:44:29;;;;;;;25.97;5.83;;;29.00;52.00;;;;;;5068284;28;20199;-74
2023/08/16 09:46:58;;;;;;;39.13;7.03;;;29.00;52.00;;;;;;5066638;28;20246;-74
2023/08/16 09:49:25;;;;;;;20.70;4.90;;;29.10;52.00;;;;;;5068598;28;20214;-74
2023/08/16 09:51:52;;;;;;;27.83;6.07;;;29.10;52.00;;;;;;5069113;28;20203;-77
2023/08/16 09:54:20;;;;;;;27.60;6.07;;;29.10;52.00;;;;;;5068342;28;20294;-77
2023/08/16 09:56:47;;;;;;;22.23;5.60;;;29.20;52.00;;;;;;5057603;28;20362;-76
2023/08/16 09:59:15;;;;;;;26.70;6.00;;;29.20;52.00;;;;;;5061340;28;20229;-75
2023/08/16 10:01:42;;;;;;;28.30;6.33;;;29.30;52.10;;;;;;5066627;28;20299;-75
2023/08/16 10:04:11;;;;;;;26.67;5.83;;;29.30;52.00;;;;;;5060707;28;20570;-74
2023/08/16 10:06:38;;;;;;;17.93;5.00;;;29.30;52.00;;;;;;5060120;28;20558;-75
2023/08/16 10:09:10;;;;;;;23.53;5.60;;;29.40;52.00;;;;;;5065850;28;20721;-76
2023/08/16 10:11:37;;;;;;;23.27;5.00;;;29.40;52.00;;;;;;5067015;28;20257;-78
2023/08/16 10:16:05;;;;;;;16.90;4.77;;;29.50;51.50;;;;;;5083969;27;20653;-77
2023/08/16 10:18:33;;;;;;;23.97;5.47;;;29.60;52.10;;;;;;5081352;28;20231;-75
2023/08/16 10:21:01;;;;;;;21.23;5.47;;;29.60;52.00;;;;;;5064238;28;20199;-73
2023/08/16 10:23:29;;;;;;;24.93;5.57;;;29.60;52.00;;;;;;5072997;28;20209;-73
2023/08/16 10:26:01;;;;;;;25.87;5.77;;;29.70;52.00;;;;;;5064473;28;20683;-75
2023/08/16 10:28:29;;;;;;;38.53;6.60;;;29.80;52.00;;;;;;5058243;28;20191;-68
2023/08/16 10:30:59;;;;;;;47.00;8.07;;;29.80;51.90;;;;;;5059762;28;20278;-64
2023/08/16 10:33:33;;;;;;;42.40;7.60;;;29.80;51.90;;;;;;5062654;28;20298;-68
2023/08/16 10:36:00;;;;;;;27.03;5.50;;;29.90;51.90;;;;;;5052272;28;20223;-64
2023/08/16 10:38:35;;;;;;;22.67;5.40;;;29.90;51.90;;;;;;5064029;28;20231;-64
2023/08/16 10:41:03;;;;;;;36.70;6.30;;;30.00;51.90;;;;;;5061844;28;20659;-63
2023/08/16 10:43:35;;;;;;;46.07;7.40;;;30.00;51.90;;;;;;5062086;28;20345;-65
2023/08/16 10:46:02;;;;;;;54.53;8.00;;;30.00;51.80;;;;;;5060871;28;20219;-65
2023/08/16 10:48:36;;;;;;;52.47;8.13;;;30.00;51.80;;;;;;5056010;28;20231;-67
2023/08/16 10:51:05;;;;;;;15.10;4.30;;;30.10;51.80;;;;;;5063737;28;20204;-70
2023/08/16 10:53:33;;;;;;;26.95;5.95;;;30.10;51.80;;;;;;5064411;28;20235;-71
2023/08/16 10:56:06;;;;;;;21.17;5.20;;;30.10;51.80;;;;;;5063415;28;20230;-69
2023/08/16 10:58:44;;;;;;;28.23;5.50;;;30.20;51.80;;;;;;5064195;28;20279;-70
2023/08/16 11:01:11;;;;;;;27.77;5.70;;;30.20;51.90;;;;;;5063192;28;20203;-70
2023/08/16 11:03:43;;;;;;;30.47;5.97;;;30.20;51.80;;;;;;5063628;28;20294;-70
2023/08/16 11:06:12;;;;;;;24.42;5.43;;;30.20;52.40;;;;;;5062149;28;20208;-70
2023/08/16 11:08:42;;;;;;;34.87;6.00;;;30.20;51.80;;;;;;5063683;28;20235;-70
2023/08/16 11:11:10;;;;;;;22.67;5.35;;;30.20;51.80;;;;;;5062037;28;20239;-70
2023/08/16 11:13:37;;;;;;;32.50;6.03;;;30.30;51.80;;;;;;5059205;28;20247;-72
2023/08/16 11:16:04;;;;;;;60.72;8.95;;;30.20;51.70;;;;;;5061799;28;20228;-71
2023/08/16 11:18:32;;;;;;;24.63;5.50;;;30.30;51.70;;;;;;5063922;28;20204;-71
2023/08/16 11:21:01;;;;;;;20.73;5.27;;;30.30;51.70;;;;;;5062602;28;20295;-73
2023/08/16 11:23:32;;;;;;;32.20;6.13;;;30.30;51.70;;;;;;5052480;28;20254;-72
2023/08/16 11:26:00;;;;;;;41.97;6.93;;;30.30;51.70;;;;;;5056235;28;20207;-69
2023/08/16 11:28:28;;;;;;;26.17;5.67;;;30.30;51.70;;;;;;5040141;28;20238;-71
2023/08/16 11:30:58;;;;;;;21.40;5.30;;;30.30;52.20;;;;;;5049799;28;20199;-70
2023/08/16 11:33:30;;;;;;;24.87;5.50;;;30.30;52.20;;;;;;5049660;28;20219;-71
2023/08/16 11:35:57;;;;;;;54.07;7.73;;;30.30;51.50;;;;;;5046679;28;21920;-74
2023/08/16 11:38:27;;;;;;;27.27;5.80;;;30.40;51.50;;;;;;5048386;28;20196;-70
2023/08/16 11:40:54;;;;;;;29.33;5.87;;;30.40;51.50;;;;;;5049668;28;20559;-74
2023/08/16 11:43:27;;;;;;;28.40;5.93;;;30.40;51.50;;;;;;5048967;28;20283;-69
2023/08/16 11:45:54;;;;;;;68.67;9.17;;;30.40;51.50;;;;;;5047206;28;20234;-70
2023/08/16 11:48:21;;;;;;;22.38;5.10;;;30.40;51.50;;;;;;5048685;28;20291;-69
2023/08/16 11:50:49;;;;;;;37.27;6.67;;;30.40;51.50;;;;;;5048461;28;20236;-77
2023/08/16 11:53:17;;;;;;;34.87;6.07;;;30.40;51.50;;;;;;5049535;28;20742;-69
2023/08/16 11:55:57;;;;;;;48.70;7.97;;;30.40;51.40;;;;;;5043149;28;20331;-70
2023/08/16 11:58:24;;;;;;;36.10;6.70;;;30.40;51.40;;;;;;5042099;28;20208;-70
2023/08/16 12:00:51;;;;;;;27.57;5.40;;;30.50;51.50;;;;;;5047990;28;20287;-69
2023/08/16 12:03:19;;;;;;;28.00;5.57;;;30.50;51.50;;;;;;5045503;28;20204;-77
2023/08/16 12:05:48;;;;;;;22.77;5.47;;;30.50;51.40;;;;;;5046307;28;20210;-70
2023/08/16 12:08:20;;;;;;;23.57;5.43;;;30.50;51.40;;;;;;5041035;28;20735;-70
2023/08/16 12:10:54;;;;;;;33.73;6.33;;;30.50;51.40;;;;;;5040480;28;20262;-72
2023/08/16 12:13:22;;;;;;;18.00;4.70;;;30.50;51.40;;;;;;5049395;28;20200;-71
2023/08/16 12:15:49;;;;;;;28.47;5.77;;;30.50;51.40;;;;;;5047816;28;20232;-72
2023/08/16 12:18:17;;;;;;;28.53;5.70;;;30.50;51.40;;;;;;5048246;28;20200;-76
2023/08/16 12:20:49;;;;;;;61.40;9.13;;;30.60;52.10;;;;;;5045685;28;20230;-73
2023/08/16 12:23:16;;;;;;;32.10;6.37;;;30.60;51.50;;;;;;5045007;28;20204;-70
2023/08/16 12:25:44;;;;;;;41.67;7.47;;;30.60;51.40;;;;;;5047702;28;20287;-73
2023/08/16 12:28:12;;;;;;;38.47;6.77;;;30.60;51.40;;;;;;5046988;28;20204;-77
2023/08/16 12:30:40;;;;;;;25.13;5.70;;;30.60;51.40;;;;;;5048969;28;20719;-76
2023/08/16 12:33:07;;;;;;;23.40;4.83;;;30.60;51.40;;;;;;5047100;28;20247;-78
2023/08/16 12:35:34;;;;;;;21.57;5.40;;;30.70;51.40;;;;;;5049425;28;20228;-76
2023/08/16 12:38:03;;;;;;;39.83;6.83;;;30.70;52.10;;;;;;5045519;28;20307;-76
2023/08/16 12:40:31;;;;;;;25.70;5.30;;;30.70;51.40;;;;;;5046869;28;20204;-70